createdAt,value
2023-05-17T00:00:55.177Z,9.92
2023-05-17T00:03:21.821Z,9.91
2023-05-17T00:05:50.150Z,9.91
2023-05-17T00:08:16.777Z,9.91
2023-05-17T00:10:43.421Z,9.90
2023-05-17T00:13:10.042Z,9.89
2023-05-17T00:15:36.677Z,9.81
2023-05-17T00:18:03.363Z,9.83
2023-05-17T00:20:30.202Z,9.81
2023-05-17T00:22:56.706Z,9.79
2023-05-17T00:25:23.332Z,9.78
2023-05-17T00:27:49.900Z,9.76
2023-05-17T00:30:19.119Z,9.73
2023-05-17T00:32:49.187Z,9.72
2023-05-17T00:35:15.757Z,9.70
2023-05-17T00:37:47.630Z,9.69
2023-05-17T00:40:16.174Z,9.66
2023-05-17T00:42:42.919Z,9.62
2023-05-17T00:45:09.934Z,9.62
2023-05-17T00:47:36.890Z,9.63
2023-05-17T00:50:04.680Z,9.63
2023-05-17T00:52:31.342Z,9.62
2023-05-17T00:54:58.571Z,9.62
2023-05-17T00:57:25.166Z,9.59
2023-05-17T00:59:55.722Z,9.56
2023-05-17T01:02:22.598Z,9.55
2023-05-17T01:04:49.999Z,9.55
2023-05-17T01:07:17.709Z,9.56
2023-05-17T01:09:44.437Z,9.53
2023-05-17T01:12:32.298Z,9.50
2023-05-17T01:15:18.093Z,9.47
2023-05-17T01:17:59.801Z,9.46
2023-05-17T01:20:36.321Z,9.45
2023-05-17T01:23:40.535Z,9.44
2023-05-17T01:26:17.193Z,9.41
2023-05-17T01:28:52.328Z,9.39
2023-05-17T01:31:20.159Z,9.39
2023-05-17T01:33:47.058Z,9.39
2023-05-17T01:36:13.728Z,9.40
2023-05-17T01:38:40.310Z,9.40
2023-05-17T01:41:18.054Z,9.36
2023-05-17T01:44:00.134Z,9.37
2023-05-17T01:46:30.041Z,9.36
2023-05-17T01:49:21.789Z,9.33
2023-05-17T01:51:55.089Z,9.31
2023-05-17T01:54:28.104Z,9.29
2023-05-17T01:56:59.543Z,9.28
2023-05-17T01:59:27.581Z,9.26
2023-05-17T02:02:03.990Z,9.22
2023-05-17T02:04:31.056Z,9.21
2023-05-17T02:06:57.702Z,9.19
2023-05-17T02:09:24.227Z,9.15
2023-05-17T02:11:50.787Z,9.13
2023-05-17T02:14:17.326Z,9.14
2023-05-17T02:16:43.847Z,9.10
2023-05-17T02:19:13.111Z,9.09
2023-05-17T02:21:39.734Z,9.08
2023-05-17T02:24:06.879Z,9.06
2023-05-17T02:26:33.523Z,9.08
2023-05-17T02:29:00.171Z,9.06
2023-05-17T02:31:26.969Z,9.07
2023-05-17T02:33:54.310Z,9.06
2023-05-17T02:36:21.430Z,9.06
2023-05-17T02:38:47.955Z,9.03
2023-05-17T02:41:14.703Z,9.02
2023-05-17T02:43:41.621Z,8.98
2023-05-17T02:46:13.018Z,8.95
2023-05-17T02:48:39.641Z,8.94
2023-05-17T02:51:06.316Z,8.92
2023-05-17T02:53:34.740Z,8.89
2023-05-17T02:56:01.376Z,8.89
2023-05-17T02:58:30.304Z,8.88
2023-05-17T03:00:56.897Z,8.86
2023-05-17T03:03:23.633Z,8.85
2023-05-17T03:05:50.340Z,8.82
2023-05-17T03:08:16.909Z,8.80
2023-05-17T03:10:43.547Z,8.77
2023-05-17T03:13:12.431Z,8.74
2023-05-17T03:15:39.104Z,8.73
2023-05-17T03:18:05.788Z,8.73
2023-05-17T03:23:58.527Z,8.69
2023-05-17T03:31:04.205Z,8.65
2023-05-17T03:33:30.893Z,8.63
2023-05-17T03:35:57.554Z,8.61
2023-05-17T03:38:24.238Z,8.58
2023-05-17T03:40:52.198Z,8.58
2023-05-17T03:43:18.881Z,8.61
2023-05-17T03:45:45.488Z,8.60
2023-05-17T03:48:11.988Z,8.63
2023-05-17T03:50:47.056Z,8.61
2023-05-17T03:53:13.606Z,8.61
2023-05-17T03:55:40.161Z,8.55
2023-05-17T03:58:07.062Z,8.55
2023-05-17T04:00:33.810Z,8.56
2023-05-17T04:03:00.796Z,8.54
2023-05-17T04:05:27.657Z,8.51
2023-05-17T04:07:54.550Z,8.46
2023-05-17T04:10:27.050Z,8.53
2023-05-17T04:12:53.963Z,8.49
2023-05-17T04:15:24.156Z,8.45
2023-05-17T04:22:18.167Z,8.41
2023-05-17T04:24:44.678Z,8.42
2023-05-17T04:27:11.361Z,8.39
2023-05-17T04:29:37.986Z,8.39
2023-05-17T04:32:04.964Z,8.40
2023-05-17T04:34:32.088Z,8.39
2023-05-17T04:37:03.967Z,8.34
2023-05-17T04:39:31.228Z,8.31
2023-05-17T04:41:57.837Z,8.31
2023-05-17T04:44:24.420Z,8.34
2023-05-17T04:46:51.018Z,8.35
2023-05-17T04:49:20.050Z,8.37
2023-05-17T04:51:46.726Z,8.36
2023-05-17T04:54:32.718Z,8.32
2023-05-17T04:56:59.294Z,8.30
2023-05-17T05:08:19.651Z,8.31
2023-05-17T05:19:21.481Z,8.42
2023-05-17T05:21:48.142Z,8.36
2023-05-17T05:24:14.668Z,8.42
2023-05-17T05:26:41.434Z,8.46
2023-05-17T05:29:08.012Z,8.49
2023-05-17T05:31:34.606Z,8.56
2023-05-17T05:34:01.345Z,8.61
2023-05-17T05:36:34.537Z,8.63
2023-05-17T05:39:01.241Z,8.62
2023-05-17T05:41:27.819Z,8.56
2023-05-17T05:43:54.454Z,8.54
2023-05-17T05:46:21.018Z,8.58
2023-05-17T05:48:47.605Z,8.60
2023-05-17T05:51:14.235Z,8.59
2023-05-17T05:54:04.476Z,8.60
2023-05-17T05:56:38.629Z,8.57
2023-05-17T06:14:24.110Z,8.43
2023-05-17T06:27:05.242Z,8.34
2023-05-17T06:44:07.176Z,8.49
2023-05-17T06:46:33.731Z,8.57
2023-05-17T06:49:00.646Z,8.51
2023-05-17T06:51:27.380Z,8.41
2023-05-17T06:54:02.273Z,8.40
2023-05-17T06:56:28.870Z,8.25
2023-05-17T06:59:27.402Z,8.28
2023-05-17T07:01:54.301Z,8.26
2023-05-17T07:04:21.202Z,8.22
2023-05-17T07:06:57.098Z,8.34
2023-05-17T07:12:42.806Z,8.43
2023-05-17T07:15:09.857Z,8.47
2023-05-17T07:37:15.255Z,8.78
2023-05-17T07:43:27.858Z,8.70
2023-05-17T07:45:54.417Z,8.75
2023-05-17T08:00:27.980Z,8.59
2023-05-17T08:02:54.594Z,8.60
2023-05-17T08:05:21.311Z,8.63
2023-05-17T08:23:10.481Z,8.66
2023-05-17T08:36:59.312Z,9.03
2023-05-17T08:39:25.953Z,9.13
2023-05-17T08:45:39.769Z,9.39
2023-05-17T08:48:07.271Z,9.47
2023-05-17T08:50:35.083Z,9.57
2023-05-17T08:56:43.955Z,9.61
2023-05-17T08:59:11.613Z,9.47
2023-05-17T09:09:07.429Z,9.98
2023-05-17T09:42:14.172Z,13.45
2023-05-17T09:44:53.396Z,13.70
2023-05-17T09:59:13.419Z,16.79
2023-05-17T10:01:45.361Z,18.37
2023-05-17T10:08:27.440Z,21.09
2023-05-17T10:10:58.493Z,21.39
2023-05-17T10:13:30.361Z,20.30
2023-05-17T10:15:57.542Z,22.26
2023-05-17T10:19:11.547Z,21.23
2023-05-17T10:21:39.426Z,21.16
2023-05-17T10:24:06.386Z,22.25
2023-05-17T10:26:34.056Z,21.85
2023-05-17T10:29:02.170Z,21.27
2023-05-17T10:31:34.415Z,19.49
2023-05-17T10:34:02.231Z,18.68
2023-05-17T10:36:29.721Z,19.08
2023-05-17T10:38:56.510Z,18.94
2023-05-17T10:41:30.522Z,18.49
2023-05-17T10:43:58.071Z,17.65
2023-05-17T10:46:24.862Z,17.67
2023-05-17T10:48:52.614Z,16.85
2023-05-17T10:51:24.756Z,16.31
2023-05-17T10:54:21.484Z,15.26
2023-05-17T10:56:50.251Z,15.40
2023-05-17T10:59:22.199Z,15.23
2023-05-17T11:01:55.398Z,14.88
2023-05-17T11:04:42.296Z,15.10
2023-05-17T11:07:28.065Z,15.36
2023-05-17T11:10:03.644Z,14.74
2023-05-17T11:12:33.697Z,14.04
2023-05-17T11:15:00.985Z,13.81
2023-05-17T11:17:34.037Z,13.75
2023-05-17T11:20:06.910Z,13.44
2023-05-17T11:22:39.869Z,13.37
2023-05-17T11:25:14.315Z,13.21
2023-05-17T11:27:46.509Z,13.53
2023-05-17T11:30:20.887Z,13.66
2023-05-17T11:32:50.537Z,13.88
2023-05-17T11:35:18.792Z,13.60
2023-05-17T11:37:45.848Z,13.25
2023-05-17T11:40:16.105Z,12.91
2023-05-17T11:42:45.234Z,12.64
2023-05-17T11:45:12.321Z,12.23
2023-05-17T11:47:40.568Z,11.99
2023-05-17T11:50:08.046Z,11.79
2023-05-17T11:52:34.716Z,11.46
2023-05-17T11:55:01.958Z,11.47
2023-05-17T11:57:32.778Z,11.53
2023-05-17T12:00:05.426Z,11.39
2023-05-17T12:02:33.136Z,11.51
2023-05-17T12:05:00.061Z,11.81
2023-05-17T12:07:27.726Z,11.97
2023-05-17T12:09:54.254Z,12.16
2023-05-17T12:12:24.133Z,12.51
2023-05-17T12:14:50.765Z,12.77
2023-05-17T12:17:29.115Z,12.62
2023-05-17T12:19:55.920Z,12.33
2023-05-17T12:22:22.692Z,12.14
2023-05-17T12:24:49.448Z,11.68
2023-05-17T12:27:26.044Z,11.64
2023-05-17T12:29:53.694Z,11.63
2023-05-17T12:32:21.062Z,11.62
2023-05-17T12:34:49.398Z,11.59
2023-05-17T12:37:16.388Z,11.38
2023-05-17T12:39:43.610Z,11.20
2023-05-17T12:42:10.683Z,10.96
2023-05-17T12:44:37.499Z,10.91
2023-05-17T12:47:04.330Z,11.00
2023-05-17T12:49:30.941Z,10.97
2023-05-17T12:52:07.761Z,11.09
2023-05-17T12:54:34.599Z,11.15
2023-05-17T12:57:12.988Z,11.32
2023-05-17T12:59:51.851Z,11.48
2023-05-17T13:02:22.302Z,11.35
2023-05-17T13:04:52.123Z,11.51
2023-05-17T13:07:25.021Z,11.74
2023-05-17T13:09:51.889Z,11.87
2023-05-17T13:12:23.806Z,12.39
2023-05-17T13:14:53.377Z,12.93
2023-05-17T13:17:50.200Z,13.20
2023-05-17T13:20:17.352Z,13.28
2023-05-17T13:22:48.028Z,13.53
2023-05-17T13:25:15.893Z,14.02
2023-05-17T13:27:46.681Z,14.45
2023-05-17T13:30:13.680Z,14.63
2023-05-17T13:32:40.449Z,14.16
2023-05-17T13:35:07.442Z,14.28
2023-05-17T13:37:37.309Z,14.36
2023-05-17T13:40:08.283Z,13.73
2023-05-17T13:42:36.292Z,13.79
2023-05-17T13:45:12.739Z,13.38
2023-05-17T13:47:43.249Z,12.89
2023-05-17T13:50:40.095Z,13.25
2023-05-17T13:53:38.482Z,13.49
2023-05-17T13:56:05.272Z,13.72
2023-05-17T13:58:31.879Z,13.38
2023-05-17T14:00:59.319Z,13.71
2023-05-17T14:03:26.223Z,14.25
2023-05-17T14:05:55.352Z,14.19
2023-05-17T14:08:22.047Z,13.53
2023-05-17T14:10:48.587Z,12.84
2023-05-17T14:13:15.120Z,12.80
2023-05-17T14:15:41.723Z,12.65
2023-05-17T14:18:09.755Z,12.61
2023-05-17T14:20:36.389Z,12.42
2023-05-17T14:23:03.133Z,12.27
2023-05-17T14:25:29.804Z,12.12
2023-05-17T14:27:56.564Z,11.95
2023-05-17T14:30:23.396Z,11.49
2023-05-17T14:32:55.527Z,11.25
2023-05-17T14:35:22.363Z,11.16
2023-05-17T14:37:51.133Z,11.07
2023-05-17T14:40:22.507Z,10.99
2023-05-17T14:42:49.005Z,10.89
2023-05-17T14:45:15.606Z,10.81
2023-05-17T14:47:44.861Z,10.70
2023-05-17T14:50:14.394Z,10.59
2023-05-17T14:52:41.004Z,10.67
2023-05-17T14:55:08.879Z,10.62
2023-05-17T14:58:01.927Z,10.68
2023-05-17T15:00:28.533Z,10.59
2023-05-17T15:02:55.241Z,10.53
2023-05-17T15:05:21.920Z,10.61
2023-05-17T15:07:49.081Z,10.59
2023-05-17T15:10:15.995Z,10.64
2023-05-17T15:12:42.557Z,10.74
2023-05-17T15:15:09.492Z,10.74
2023-05-17T15:17:38.498Z,10.65
2023-05-17T15:20:05.930Z,10.65
2023-05-17T15:22:33.146Z,10.59
2023-05-17T15:28:14.785Z,10.54
2023-05-17T15:30:50.162Z,10.57
2023-05-17T15:33:25.086Z,10.69
2023-05-17T15:35:53.630Z,10.65
2023-05-17T15:38:20.158Z,10.72
2023-05-17T15:41:38.230Z,10.53
2023-05-17T15:51:36.747Z,10.74
2023-05-17T15:58:38.623Z,11.08
2023-05-17T16:01:05.767Z,11.29
2023-05-17T16:15:07.752Z,11.19
2023-05-17T16:17:34.399Z,11.26
2023-05-17T16:23:47.763Z,11.15
2023-05-17T16:37:56.489Z,10.47
2023-05-17T17:04:32.939Z,11.07
2023-05-17T17:07:31.624Z,10.95
2023-05-17T17:10:08.678Z,11.14
2023-05-17T17:12:38.731Z,11.20
2023-05-17T17:15:13.630Z,11.21
2023-05-17T17:17:40.265Z,11.29
2023-05-17T17:20:12.948Z,11.31
2023-05-17T17:22:40.016Z,11.31
2023-05-17T17:25:07.581Z,11.24
2023-05-17T17:27:42.620Z,11.23
2023-05-17T17:30:42.703Z,11.25
2023-05-17T17:33:09.372Z,11.25
2023-05-17T17:47:00.958Z,11.07
2023-05-17T17:49:30.071Z,11.02
2023-05-17T17:51:58.109Z,11.00
2023-05-17T17:54:24.744Z,10.91
2023-05-17T17:56:51.297Z,10.84
2023-05-17T17:59:20.430Z,10.75
2023-05-17T18:01:47.076Z,10.64
2023-05-17T18:04:16.829Z,10.59
2023-05-17T18:06:43.792Z,10.54
2023-05-17T18:09:10.362Z,10.46
2023-05-17T18:11:37.583Z,10.42
2023-05-17T18:14:04.358Z,10.39
2023-05-17T18:16:35.422Z,10.31
2023-05-17T18:19:02.146Z,10.26
2023-05-17T18:21:29.774Z,10.18
2023-05-17T18:23:56.345Z,10.08
2023-05-17T18:26:32.893Z,10.04
2023-05-17T18:32:15.454Z,9.88
2023-05-17T18:43:44.059Z,9.65
2023-05-17T18:53:06.531Z,9.40
2023-05-17T18:55:33.396Z,9.35
2023-05-17T18:58:02.521Z,9.27
2023-05-17T19:00:44.435Z,9.23
2023-05-17T19:03:11.092Z,9.17
2023-05-17T19:05:37.667Z,9.11
2023-05-17T19:08:04.242Z,9.06
2023-05-17T19:10:31.117Z,8.98
2023-05-17T19:12:57.795Z,8.95
2023-05-17T19:15:24.386Z,8.89
2023-05-17T19:17:51.104Z,8.84
2023-05-17T19:20:18.110Z,8.78
2023-05-17T19:22:44.674Z,8.73
2023-05-17T19:25:11.221Z,8.66
2023-05-17T19:27:37.812Z,8.61
2023-05-17T19:30:05.214Z,8.53
2023-05-17T19:32:33.173Z,8.49
2023-05-17T19:35:01.179Z,8.47
2023-05-17T19:37:28.532Z,8.45
2023-05-17T19:39:55.342Z,8.45
2023-05-17T19:42:21.900Z,8.46
2023-05-17T19:44:48.472Z,8.44
2023-05-17T19:47:15.205Z,8.44
2023-05-17T19:49:43.165Z,8.42
2023-05-17T19:52:09.896Z,8.40
2023-05-17T19:54:36.474Z,8.42
2023-05-17T19:57:03.063Z,8.44
2023-05-17T19:59:29.719Z,8.44
2023-05-17T20:01:57.436Z,8.52
2023-05-17T20:04:24.167Z,8.52
2023-05-17T20:06:51.134Z,8.55
2023-05-17T20:09:17.757Z,8.55
2023-05-17T20:11:44.531Z,8.56
2023-05-17T20:14:12.258Z,8.55
2023-05-17T20:16:39.029Z,8.57
2023-05-17T20:19:05.768Z,8.58
2023-05-17T20:21:32.403Z,8.57
2023-05-17T20:24:03.898Z,8.59
2023-05-17T20:26:36.652Z,8.62
2023-05-17T20:29:07.054Z,8.63
2023-05-17T20:31:39.959Z,8.65
2023-05-17T20:34:06.618Z,8.64
2023-05-17T20:36:33.369Z,8.66
2023-05-17T20:38:59.922Z,8.71
2023-05-17T20:41:26.428Z,8.73
2023-05-17T20:43:53.742Z,8.73
2023-05-17T20:46:20.734Z,8.75
2023-05-17T20:48:48.512Z,8.76
2023-05-17T20:51:16.152Z,8.78
2023-05-17T20:53:42.809Z,8.77
2023-05-17T20:56:09.698Z,8.78
2023-05-17T20:58:36.595Z,8.77
2023-05-17T21:01:03.315Z,8.77
2023-05-17T21:03:33.883Z,8.78
2023-05-17T21:06:02.015Z,8.78
2023-05-17T21:19:51.760Z,8.68
2023-05-17T22:13:58.789Z,8.55
2023-05-17T22:16:25.721Z,8.59
2023-05-17T22:57:10.902Z,8.39
2023-05-17T22:59:37.445Z,8.39
2023-05-17T23:14:36.533Z,8.44
2023-05-17T23:17:04.125Z,8.44
2023-05-17T23:19:31.522Z,8.44
2023-05-17T23:26:14.575Z,8.40
2023-05-17T23:33:31.623Z,8.34
2023-05-17T23:35:58.900Z,8.37
2023-05-17T23:45:55.769Z,8.39
2023-05-17T23:48:25.612Z,8.39
2023-05-17T23:50:52.189Z,8.39
2023-05-17T23:57:13.517Z,8.38
2023-05-17T23:59:40.078Z,8.39
